Time;durP1;ratioP1;P1;durP2;ratioP2;P2;SDS_P1;SDS_P2;PMS_P1;PMS_P2;Temp;Humidity;BMP_temperature;BMP_pressure;BME280_temperature;BME280_humidity;BME280_pressure;Samples;Min_cycle;Max_cycle;Signal;HPM_P1;HPM_P2
2021/01/26 00:00:25;;;;;;;5.30;2.27;;;3.20;99.90;;;5.49;100.00;100905.78;1700473;74;24948;-79
2021/01/26 00:02:45;;;;;;;3.95;1.65;;;3.30;99.90;;;5.59;100.00;100914.30;1707306;74;24603;-79
2021/01/26 00:05:08;;;;;;;4.50;1.74;;;3.30;99.90;;;5.52;100.00;100904.58;1703446;74;24458;-80
2021/01/26 00:07:32;;;;;;;4.66;2.54;;;3.30;99.90;;;5.54;100.00;100910.68;1711105;74;24509;-80
2021/01/26 00:09:54;;;;;;;5.17;2.26;;;3.40;99.90;;;5.43;100.00;100920.68;1705041;74;25059;-78
2021/01/26 00:12:17;;;;;;;5.23;2.36;;;3.40;99.90;;;5.38;100.00;100918.36;1706276;73;24448;-80
2021/01/26 00:14:54;;;;;;;3.97;2.49;;;3.30;99.90;;;5.45;100.00;100912.98;1709340;74;24939;-79
2021/01/26 00:17:11;;;;;;;7.23;2.75;;;3.30;99.90;;;5.49;100.00;100909.25;1710564;74;24485;-80
2021/01/26 00:19:31;;;;;;;3.35;2.08;;;3.30;99.90;;;5.52;100.00;100920.97;1711246;74;24444;-79
2021/01/26 00:21:49;;;;;;;7.29;2.86;;;3.30;99.90;;;5.73;100.00;100920.36;1706208;74;24445;-80
2021/01/26 00:24:34;;;;;;;6.76;3.64;;;3.40;99.90;;;5.87;100.00;100938.88;1720157;74;25029;-80
2021/01/26 00:26:57;;;;;;;7.51;3.14;;;3.50;99.90;;;5.89;100.00;100925.61;1703327;73;24468;-79
2021/01/26 00:29:19;;;;;;;6.50;3.54;;;3.60;99.90;;;5.64;100.00;100929.08;1704673;74;24546;-77
2021/01/26 00:31:37;;;;;;;5.83;2.60;;;3.60;99.90;;;5.60;100.00;100936.30;1696016;73;24482;-77
2021/01/26 00:33:58;;;;;;;9.70;4.13;;;3.70;99.90;;;5.52;100.00;100942.91;1671366;75;24951;-77
2021/01/26 00:36:16;;;;;;;4.46;1.82;;;3.70;99.90;;;5.57;100.00;100937.89;1659939;76;24618;-80
2021/01/26 00:38:46;;;;;;;7.00;3.69;;;3.70;99.90;;;5.39;100.00;100959.27;1698991;74;24422;-78
2021/01/26 00:44:00;;;;;;;7.86;3.82;;;3.70;99.90;;;5.61;100.00;100928.99;1734082;72;25198;-77
2021/01/26 00:46:18;;;;;;;8.20;3.57;;;3.70;99.90;;;5.40;100.00;100936.48;1699617;74;24984;-78
2021/01/26 00:48:36;;;;;;;7.63;3.47;;;3.70;99.90;;;5.49;100.00;100956.13;1688169;75;24457;-79
2021/01/26 00:50:58;;;;;;;6.64;3.55;;;3.70;99.90;;;5.59;100.00;100952.63;1700209;75;24893;-78
2021/01/26 00:53:25;;;;;;;10.88;4.34;;;3.70;99.90;;;5.60;100.00;100946.63;1691833;75;24495;-77
2021/01/26 00:55:50;;;;;;;7.20;3.87;;;3.60;99.90;;;5.43;100.00;100963.28;1687812;75;24529;-80
2021/01/26 00:58:14;;;;;;;6.48;3.24;;;3.60;99.90;;;5.49;100.00;100954.84;1691251;75;24492;-78
2021/01/26 01:00:55;;;;;;;9.39;4.74;;;3.50;99.90;;;5.50;100.00;100955.33;1683730;75;24542;-77
2021/01/26 01:03:17;;;;;;;9.65;5.46;;;3.60;99.90;;;5.71;100.00;100943.08;1688208;75;24528;-78
2021/01/26 01:05:33;;;;;;;8.90;5.42;;;3.60;99.90;;;6.02;100.00;100941.51;1692826;75;24523;-81
2021/01/26 01:08:06;;;;;;;11.21;4.42;;;3.70;99.90;;;5.76;100.00;100929.48;1689165;75;25757;-77
2021/01/26 01:10:34;;;;;;;11.00;5.23;;;3.70;99.90;;;5.90;100.00;100943.73;1694950;74;24998;-79
2021/01/26 01:12:51;;;;;;;12.74;4.92;;;3.80;99.90;;;5.90;100.00;100955.77;1696866;75;24982;-77
2021/01/26 01:15:12;;;;;;;12.71;5.58;;;3.80;99.90;;;5.96;100.00;100941.33;1687014;75;24441;-78
2021/01/26 01:17:34;;;;;;;11.79;5.20;;;3.80;99.90;;;6.04;100.00;100955.36;1692226;75;24683;-77
2021/01/26 01:20:15;;;;;;;14.21;5.94;;;3.80;99.90;;;6.07;100.00;100961.91;1693082;75;24516;-82
2021/01/26 01:22:31;;;;;;;12.61;6.38;;;3.90;99.90;;;6.04;100.00;100948.91;1685674;75;24559;-78
2021/01/26 01:24:50;;;;;;;11.15;5.88;;;4.00;99.90;;;6.21;100.00;100953.70;1689261;74;24458;-78
2021/01/26 01:27:08;;;;;;;17.86;6.20;;;4.00;99.90;;;6.26;100.00;100949.11;1681771;75;24530;-80
2021/01/26 01:29:31;;;;;;;12.67;6.20;;;4.00;99.90;;;6.29;100.00;100967.73;1698930;75;24491;-78
2021/01/26 01:31:50;;;;;;;12.46;4.97;;;4.10;99.90;;;6.22;100.00;100961.50;1694967;75;24532;-79
2021/01/26 01:34:14;;;;;;;15.51;5.15;;;4.10;99.90;;;6.16;100.00;100967.35;1688662;74;24490;-79
2021/01/26 01:36:31;;;;;;;16.24;5.44;;;4.10;99.90;;;6.26;100.00;100964.62;1689477;75;24415;-79
2021/01/26 01:38:50;;;;;;;9.87;4.64;;;4.10;99.90;;;6.23;100.00;100971.00;1691697;75;24526;-80
2021/01/26 01:41:08;;;;;;;13.13;5.11;;;4.10;99.90;;;6.16;100.00;100980.72;1691453;75;24482;-78
2021/01/26 01:43:26;;;;;;;12.53;4.87;;;4.00;99.90;;;6.18;100.00;100988.08;1694517;74;24692;-78
2021/01/26 01:45:49;;;;;;;15.84;4.82;;;4.00;99.90;;;6.09;100.00;100968.42;1693922;75;24453;-77
2021/01/26 01:48:12;;;;;;;13.20;4.61;;;4.00;99.90;;;6.13;100.00;100975.02;1692404;75;24900;-78
2021/01/26 01:50:36;;;;;;;13.82;4.88;;;4.00;99.90;;;6.09;100.00;100974.48;1695406;74;24438;-79
2021/01/26 01:53:01;;;;;;;12.00;4.48;;;3.90;99.90;;;6.11;100.00;100987.05;1707734;75;24427;-78
2021/01/26 01:55:24;;;;;;;12.76;4.29;;;3.90;99.90;;;6.15;100.00;100985.41;1691640;75;24481;-78
2021/01/26 01:57:56;;;;;;;11.30;4.47;;;3.90;99.90;;;6.20;100.00;100990.30;1701824;75;24558;-81
2021/01/26 02:00:18;;;;;;;12.86;3.96;;;3.90;99.90;;;6.30;100.00;100984.99;1688617;75;24526;-79
2021/01/26 02:02:40;;;;;;;13.25;4.64;;;3.90;99.90;;;6.17;100.00;100979.87;1697715;75;24473;-79
2021/01/26 02:05:02;;;;;;;10.50;4.54;;;3.90;99.90;;;6.13;100.00;100981.92;1689308;75;24500;-80
2021/01/26 02:07:21;;;;;;;12.77;4.84;;;3.90;99.90;;;6.00;100.00;100974.61;1701660;75;24420;-80
2021/01/26 02:09:42;;;;;;;8.11;3.15;;;3.90;99.90;;;6.03;100.00;101000.55;1681018;75;24972;-79
2021/01/26 02:12:02;;;;;;;10.64;4.29;;;3.90;99.90;;;5.86;100.00;101010.34;1679425;75;24525;-80
2021/01/26 02:14:19;;;;;;;16.02;4.88;;;3.80;99.90;;;5.98;100.00;101009.86;1679748;76;24540;-80
2021/01/26 02:16:52;;;;;;;13.79;4.26;;;3.80;99.90;;;6.01;100.00;101009.95;1688781;75;24456;-78
2021/01/26 02:19:48;;;;;;;11.23;3.74;;;3.80;99.90;;;5.87;100.00;101024.16;1696952;74;24952;-80
2021/01/26 02:23:04;;;;;;;10.23;3.71;;;3.70;99.90;;;5.90;100.00;101016.09;1697540;74;24452;-80
2021/01/26 02:26:28;;;;;;;10.31;3.40;;;3.70;99.90;;;5.96;100.00;101017.97;1688941;75;24548;-79
2021/01/26 02:29:03;;;;;;;13.32;3.72;;;3.60;99.90;;;5.95;100.00;101009.37;1686622;74;24446;-80
2021/01/26 02:35:28;;;;;;;10.10;3.09;;;3.60;99.90;;;6.05;100.00;101019.14;1810086;70;25786;-81
2021/01/26 02:38:40;;;;;;;10.22;3.06;;;3.60;99.90;;;5.89;100.00;101024.69;1774505;71;24525;-80
2021/01/26 02:41:06;;;;;;;8.57;2.60;;;3.60;99.90;;;5.89;100.00;101031.14;1780450;71;24699;-80
2021/01/26 02:43:48;;;;;;;8.30;2.72;;;3.60;99.90;;;6.00;100.00;101024.61;1772674;71;24866;-80
2021/01/26 02:46:13;;;;;;;11.04;3.05;;;3.60;99.90;;;5.95;100.00;101027.86;1778097;71;24485;-81
2021/01/26 02:48:46;;;;;;;12.31;3.18;;;3.60;99.90;;;5.92;100.00;101029.95;1774038;71;24421;-78
2021/01/26 02:51:12;;;;;;;8.56;2.40;;;3.60;99.90;;;5.93;100.00;101038.15;1766407;71;24463;-79
2021/01/26 02:53:37;;;;;;;4.84;1.73;;;3.60;99.90;;;5.97;100.00;101043.86;1780764;70;24452;-81
2021/01/26 02:56:08;;;;;;;9.50;2.67;;;3.60;99.90;;;5.84;100.00;101044.33;1776309;71;24840;-79
2021/01/26 02:58:31;;;;;;;9.26;2.85;;;3.60;99.90;;;5.88;100.00;101049.19;1777705;71;24478;-78
2021/01/26 03:00:55;;;;;;;8.06;2.02;;;3.60;99.90;;;5.82;100.00;101054.13;1770843;72;24413;-79
2021/01/26 03:03:17;;;;;;;7.34;2.06;;;3.60;99.90;;;5.89;100.00;101063.84;1766713;71;24448;-80
2021/01/26 03:05:46;;;;;;;10.29;2.23;;;3.60;99.90;;;5.91;100.00;101058.33;1769415;71;24915;-77
2021/01/26 03:08:15;;;;;;;5.76;1.70;;;3.60;99.90;;;5.85;100.00;101043.89;1777972;70;24450;-81
2021/01/26 03:10:45;;;;;;;7.28;1.86;;;3.60;99.90;;;5.92;100.00;101068.71;1752778;72;24497;-78
2021/01/26 03:13:06;;;;;;;4.61;1.64;;;3.60;99.90;;;5.71;100.00;101062.80;1730892;74;24503;-80
2021/01/26 03:15:28;;;;;;;4.79;1.27;;;3.60;99.90;;;5.63;100.00;101091.77;1731677;72;24882;-80
2021/01/26 03:17:51;;;;;;;5.48;1.23;;;3.50;99.90;;;5.66;100.00;101059.17;1745919;72;24882;-80
2021/01/26 03:20:18;;;;;;;4.46;1.10;;;3.50;99.90;;;5.72;100.00;101070.14;1738514;73;24479;-79
2021/01/26 03:22:44;;;;;;;2.50;0.81;;;3.50;99.90;;;5.68;100.00;101082.47;1746789;72;24481;-80
2021/01/26 03:25:07;;;;;;;4.78;0.98;;;3.50;99.90;;;5.56;100.00;101102.73;1730992;73;24954;-80
2021/01/26 03:27:42;;;;;;;5.60;0.90;;;3.40;99.90;;;5.57;100.00;101080.83;1725180;72;24534;-80
2021/01/26 03:30:07;;;;;;;4.15;1.35;;;3.40;99.90;;;5.63;100.00;101081.43;1776707;71;24503;-80
2021/01/26 03:32:34;;;;;;;3.23;1.33;;;3.40;99.90;;;5.60;100.00;101087.39;1776400;71;24460;-79
2021/01/26 03:34:54;;;;;;;3.72;1.30;;;3.40;99.90;;;5.59;100.00;101090.81;1769231;71;24451;-81
2021/01/26 03:37:14;;;;;;;4.24;1.11;;;3.50;99.90;;;5.85;100.00;101091.29;1774515;71;24465;-78
2021/01/26 03:39:35;;;;;;;8.17;2.16;;;3.40;99.90;;;5.73;100.00;101088.27;1766764;71;25734;-80
2021/01/26 03:42:01;;;;;;;4.91;1.73;;;3.50;99.90;;;5.82;100.00;101095.47;1772334;71;24444;-80
2021/01/26 03:44:19;;;;;;;5.09;1.35;;;3.50;99.90;;;5.88;100.00;101102.16;1768437;71;24551;-80
2021/01/26 03:47:20;;;;;;;7.51;1.72;;;3.50;99.90;;;5.84;100.00;101105.05;1776840;71;24633;-80
2021/01/26 03:49:50;;;;;;;8.08;1.71;;;3.50;99.90;;;5.75;100.00;101093.05;1779766;71;24484;-78
2021/01/26 03:52:22;;;;;;;10.01;1.80;;;3.50;99.90;;;5.91;100.00;101102.26;1765603;71;25035;-80
2021/01/26 03:54:48;;;;;;;5.71;1.69;;;3.50;99.90;;;5.80;100.00;101104.86;1786388;71;24369;-78
2021/01/26 03:57:44;;;;;;;8.11;1.81;;;3.50;99.90;;;5.75;100.00;101115.02;1774325;71;24484;-78
2021/01/26 04:00:29;;;;;;;5.95;1.28;;;3.50;99.90;;;5.87;100.00;101115.88;1775648;72;24411;-79
2021/01/26 04:03:06;;;;;;;5.44;1.65;;;3.50;99.90;;;5.84;100.00;101119.66;1768066;70;24561;-79
2021/01/26 04:05:31;;;;;;;6.65;1.56;;;3.40;99.90;;;5.76;100.00;101139.16;1779230;71;24953;-81
2021/01/26 04:07:58;;;;;;;3.92;1.71;;;3.40;99.90;;;5.79;100.00;101127.63;1774558;71;24496;-79
2021/01/26 04:10:25;;;;;;;9.24;2.54;;;3.40;99.90;;;5.74;100.00;101131.75;1740446;72;24450;-80
2021/01/26 04:12:49;;;;;;;7.69;2.43;;;3.50;99.90;;;5.89;100.00;101126.76;1772621;71;24902;-78
2021/01/26 04:15:14;;;;;;;7.39;2.36;;;3.50;99.90;;;5.91;100.00;101138.44;1773512;71;24590;-79
2021/01/26 04:17:41;;;;;;;9.08;2.27;;;3.60;99.90;;;5.98;100.00;101123.17;1779097;70;24469;-79
2021/01/26 04:20:07;;;;;;;11.16;2.46;;;3.60;99.90;;;6.06;100.00;101131.17;1773594;71;24459;-80
2021/01/26 04:22:34;;;;;;;10.36;1.84;;;3.70;99.90;;;6.03;100.00;101145.30;1779043;71;24931;-80
2021/01/26 04:24:51;;;;;;;7.89;1.79;;;3.80;99.90;;;6.14;100.00;101134.48;1772802;71;24404;-78
2021/01/26 04:27:17;;;;;;;10.46;2.23;;;3.80;99.90;;;6.27;100.00;101143.92;1779330;71;24528;-79
2021/01/26 04:29:37;;;;;;;10.71;2.00;;;3.90;99.90;;;6.34;100.00;101140.72;1776228;71;24921;-80
2021/01/26 04:31:59;;;;;;;8.39;2.01;;;4.00;99.90;;;6.40;100.00;101141.80;1735995;73;24431;-81
2021/01/26 04:34:18;;;;;;;9.08;1.90;;;4.00;99.90;;;6.43;100.00;101147.47;1775026;71;24517;-78
2021/01/26 04:36:36;;;;;;;6.44;2.02;;;4.10;99.90;;;6.59;100.00;101154.45;1770713;71;24502;-80
2021/01/26 04:38:55;;;;;;;7.41;1.96;;;4.20;99.90;;;6.50;100.00;101165.81;1763933;71;24484;-79
2021/01/26 04:41:18;;;;;;;6.50;2.11;;;4.30;99.90;;;6.58;100.00;101156.58;1770417;71;24441;-78
2021/01/26 04:43:40;;;;;;;8.41;2.01;;;4.40;99.90;;;6.57;100.00;101160.02;1776854;71;24862;-78
2021/01/26 04:46:07;;;;;;;7.43;1.86;;;4.40;99.90;;;6.51;100.00;101162.41;1775892;71;24432;-79
2021/01/26 04:48:39;;;;;;;7.74;1.49;;;4.40;99.90;;;6.40;100.00;101172.83;1777587;71;24847;-77
2021/01/26 04:51:02;;;;;;;7.24;2.00;;;4.40;99.90;;;6.30;100.00;101174.64;1769701;71;25090;-79
2021/01/26 04:53:51;;;;;;;6.55;2.48;;;4.30;99.90;;;6.36;100.00;101185.18;1766726;71;24466;-80
2021/01/26 04:56:32;;;;;;;10.15;2.73;;;4.30;99.90;;;6.35;100.00;101183.84;1760470;71;24497;-79
2021/01/26 04:59:27;;;;;;;9.12;2.22;;;4.20;99.90;;;6.33;100.00;101195.43;1772244;71;24888;-78
2021/01/26 05:02:04;;;;;;;7.49;2.03;;;4.20;99.90;;;6.35;100.00;101188.61;1768814;71;24510;-79
2021/01/26 05:04:28;;;;;;;7.69;2.40;;;4.20;99.90;;;6.38;100.00;101190.00;1750726;72;24895;-78
2021/01/26 05:06:52;;;;;;;8.09;2.41;;;4.20;99.90;;;6.49;100.00;101195.10;1775456;71;24417;-78
2021/01/26 05:09:14;;;;;;;10.37;2.91;;;4.20;99.90;;;6.56;100.00;101184.54;1775299;71;24620;-79
2021/01/26 05:11:40;;;;;;;9.29;3.00;;;4.20;99.90;;;6.52;100.00;101196.90;1774211;70;24537;-79
2021/01/26 05:14:05;;;;;;;11.27;3.08;;;4.30;99.90;;;6.34;100.00;101192.44;1773275;71;24463;-79
2021/01/26 05:16:29;;;;;;;9.59;2.66;;;4.30;99.90;;;6.54;100.00;101200.02;1771896;71;24886;-79
2021/01/26 05:18:52;;;;;;;7.77;2.20;;;4.40;99.90;;;6.65;100.00;101183.53;1771242;72;24515;-79
2021/01/26 05:21:25;;;;;;;7.79;2.30;;;4.40;99.90;;;6.48;100.00;101202.81;1772418;71;24488;-79
2021/01/26 05:23:57;;;;;;;7.29;2.45;;;4.30;99.90;;;6.39;100.00;101196.03;1773851;71;24906;-79
2021/01/26 05:26:16;;;;;;;10.55;2.23;;;4.20;99.90;;;6.35;100.00;101195.08;1769013;71;24474;-78
2021/01/26 05:28:33;;;;;;;7.41;2.20;;;4.10;99.90;;;6.37;100.00;101212.79;1770206;70;24424;-79
2021/01/26 05:31:04;;;;;;;9.82;2.05;;;4.10;99.90;;;6.53;100.00;101211.17;1780664;71;24522;-77
2021/01/26 05:33:17;;;;;;;7.83;2.12;;;4.10;99.90;;;6.53;100.00;101209.02;1777969;71;24464;-79
2021/01/26 05:35:39;;;;;;;9.20;2.03;;;4.10;99.90;;;6.64;100.00;101225.33;1778141;70;24429;-78
2021/01/26 05:37:58;;;;;;;5.95;1.64;;;4.10;99.90;;;6.70;100.00;101223.37;1771958;72;24410;-79
2021/01/26 05:40:23;;;;;;;9.93;2.08;;;4.20;99.90;;;6.73;100.00;101228.23;1763503;71;24625;-78
2021/01/26 05:42:43;;;;;;;8.61;1.98;;;4.30;99.90;;;6.77;100.00;101231.38;1776387;71;24476;-80
2021/01/26 05:45:07;;;;;;;7.95;1.78;;;4.30;99.90;;;6.74;100.00;101230.39;1779525;71;24893;-79
2021/01/26 05:47:34;;;;;;;3.46;1.29;;;4.40;99.90;;;6.83;100.00;101239.32;1780588;71;24493;-79
2021/01/26 05:49:54;;;;;;;5.53;1.63;;;4.50;99.90;;;6.88;100.00;101246.82;1767290;71;24894;-77
2021/01/26 05:52:17;;;;;;;5.19;1.61;;;4.50;99.90;;;6.81;100.00;101256.50;1774962;72;24421;-77
2021/01/26 05:54:47;;;;;;;8.60;1.72;;;4.50;99.90;;;6.63;100.00;101253.74;1769892;72;24377;-77
2021/01/26 05:57:09;;;;;;;5.56;1.30;;;4.60;99.90;;;6.49;100.00;101266.23;1765769;72;24422;-80
2021/01/26 05:59:38;;;;;;;7.50;1.69;;;4.50;99.90;;;6.36;100.00;101281.27;1741745;71;24467;-79
2021/01/26 06:02:03;;;;;;;4.54;1.67;;;4.50;99.90;;;6.19;100.00;101272.95;1740573;72;24512;-80
2021/01/26 06:04:35;;;;;;;8.04;1.92;;;4.40;99.90;;;6.07;100.00;101267.34;1775847;70;24464;-80
2021/01/26 06:07:37;;;;;;;8.57;2.07;;;4.40;99.90;;;6.19;100.00;101278.13;1772414;71;24489;-79
2021/01/26 06:10:00;;;;;;;8.86;1.86;;;4.30;99.90;;;6.14;100.00;101281.84;1780334;70;24413;-79
2021/01/26 06:12:24;;;;;;;6.80;1.70;;;4.20;99.90;;;6.16;100.00;101277.58;1773554;71;24457;-80
2021/01/26 06:14:45;;;;;;;7.29;1.86;;;4.20;99.90;;;6.16;100.00;101283.19;1769138;71;24417;-79
2021/01/26 06:17:11;;;;;;;7.47;2.37;;;4.10;99.90;;;6.15;100.00;101290.46;1761952;71;24432;-80
2021/01/26 06:19:30;;;;;;;6.53;1.93;;;4.10;99.90;;;6.23;100.00;101298.07;1773568;70;24878;-80
2021/01/26 06:22:03;;;;;;;9.90;2.33;;;4.10;99.90;;;6.20;100.00;101302.28;1743271;71;24979;-81
2021/01/26 06:24:27;;;;;;;8.73;2.30;;;4.10;99.90;;;6.08;100.00;101303.61;1767747;71;25071;-80
2021/01/26 06:27:06;;;;;;;9.24;2.06;;;4.10;99.90;;;6.15;100.00;101308.56;1772810;71;24410;-81
2021/01/26 06:32:13;;;;;;;8.03;2.13;;;4.10;99.90;;;6.39;100.00;101305.55;1741581;72;25196;-80
2021/01/26 06:35:16;;;;;;;8.92;2.18;;;4.10;99.90;;;6.25;100.00;101322.29;1707221;75;24476;-81
2021/01/26 06:38:03;;;;;;;8.58;1.81;;;4.10;99.90;;;6.24;100.00;101320.94;1691789;75;24927;-78
2021/01/26 06:40:38;;;;;;;13.02;2.36;;;4.10;99.90;;;6.29;100.00;101332.33;1698827;74;24435;-78
2021/01/26 06:43:15;;;;;;;8.60;2.22;;;4.20;99.90;;;6.32;100.00;101328.16;1689967;75;24967;-83
2021/01/26 06:45:41;;;;;;;9.50;2.27;;;4.10;99.90;;;6.23;100.00;101331.69;1713784;75;24523;-79
2021/01/26 06:51:54;;;;;;;8.48;2.12;;;4.20;99.90;;;6.51;100.00;101331.84;1738790;72;25243;-79
2021/01/26 06:54:54;;;;;;;7.48;2.22;;;4.20;99.90;;;6.46;100.00;101342.45;1723801;73;24592;-79
2021/01/26 06:57:56;;;;;;;8.86;2.36;;;4.20;99.90;;;6.48;100.00;101341.20;1716200;73;24919;-79
2021/01/26 07:01:04;;;;;;;9.00;1.89;;;4.20;99.90;;;6.60;100.00;101348.08;1724705;73;24974;-80
2021/01/26 07:04:25;;;;;;;10.15;2.13;;;4.20;99.90;;;6.34;100.00;101354.07;1718860;73;24498;-79
2021/01/26 07:10:21;;;;;;;7.06;1.59;;;4.00;99.90;;;6.36;100.00;101373.08;1742425;72;25265;-80
2021/01/26 07:16:40;;;;;;;4.70;1.53;;;4.00;99.90;;;6.52;100.00;101373.70;1813684;69;25197;-80
2021/01/26 07:19:37;;;;;;;6.99;1.81;;;4.10;99.90;;;6.42;100.00;101373.33;1778417;71;24859;-80
2021/01/26 07:22:36;;;;;;;5.50;1.69;;;4.10;99.90;;;6.62;100.00;101381.36;1769858;71;24504;-81
2021/01/26 07:25:02;;;;;;;5.88;1.90;;;4.20;99.90;;;6.69;100.00;101401.03;1791938;70;24408;-78
2021/01/26 07:27:39;;;;;;;10.40;2.36;;;4.20;99.90;;;6.70;100.00;101400.19;1771978;71;24412;-78
2021/01/26 07:30:19;;;;;;;7.81;2.23;;;4.30;99.90;;;6.69;100.00;101401.43;1782413;71;24932;-79
2021/01/26 07:32:43;;;;;;;5.12;1.92;;;4.30;99.90;;;6.58;100.00;101405.35;1784381;71;25050;-80
2021/01/26 07:35:16;;;;;;;9.47;1.96;;;4.20;99.90;;;6.49;100.00;101408.91;1780196;71;24496;-80
2021/01/26 07:37:42;;;;;;;7.74;1.60;;;4.20;99.90;;;6.52;100.00;101416.78;1781126;71;24411;-80
2021/01/26 07:40:06;;;;;;;9.19;1.67;;;4.20;99.90;;;6.52;100.00;101421.95;1773046;71;24454;-77
2021/01/26 07:42:27;;;;;;;6.69;1.97;;;4.20;99.90;;;6.62;100.00;101424.05;1783405;70;24410;-79
2021/01/26 07:44:48;;;;;;;8.66;1.90;;;4.30;99.90;;;6.62;100.00;101430.52;1778244;70;24490;-84
2021/01/26 07:47:16;;;;;;;5.77;2.01;;;4.30;99.90;;;6.56;100.00;101437.63;1774230;71;24413;-80
2021/01/26 07:49:52;;;;;;;6.80;1.98;;;4.30;99.90;;;6.54;100.00;101449.66;1768273;71;24508;-82
2021/01/26 07:52:12;;;;;;;6.58;1.72;;;4.30;99.90;;;6.67;100.00;101447.95;1774836;71;24423;-83
2021/01/26 07:54:35;;;;;;;5.96;1.97;;;4.40;99.90;;;6.74;100.00;101451.64;1770087;71;24538;-82
2021/01/26 07:56:51;;;;;;;8.53;2.34;;;4.40;99.90;;;6.78;100.00;101454.39;1778703;71;24557;-83
2021/01/26 07:59:13;;;;;;;6.63;2.14;;;4.50;99.90;;;6.80;100.00;101460.51;1771338;71;25055;-83
2021/01/26 08:01:32;;;;;;;6.19;2.00;;;4.50;99.90;;;6.81;100.00;101465.28;1779356;70;24486;-83
2021/01/26 08:03:49;;;;;;;7.36;2.07;;;4.60;99.90;;;6.84;100.00;101471.86;1741697;72;24464;-84
2021/01/26 08:06:10;;;;;;;9.44;2.38;;;4.60;99.90;;;6.78;100.00;101483.30;1767769;71;24453;-83
2021/01/26 08:08:31;;;;;;;8.20;2.57;;;4.70;99.90;;;6.87;100.00;101471.97;1773964;70;24458;-84
2021/01/26 08:10:49;;;;;;;7.53;2.16;;;4.70;99.90;;;6.90;100.00;101475.55;1772166;70;24495;-79
2021/01/26 08:13:06;;;;;;;13.06;2.73;;;4.80;99.90;;;6.96;100.00;101479.64;1770605;70;24539;-81
2021/01/26 08:15:31;;;;;;;13.53;2.81;;;4.80;99.90;;;6.94;100.00;101484.31;1775781;70;24592;-81
2021/01/26 08:17:48;;;;;;;9.79;2.35;;;4.80;99.90;;;7.02;100.00;101482.44;1772449;70;24928;-81
2021/01/26 08:20:09;;;;;;;7.40;2.26;;;4.90;99.90;;;6.96;100.00;101488.70;1771720;71;24410;-81
2021/01/26 08:22:35;;;;;;;8.54;2.27;;;4.90;99.90;;;6.99;100.00;101487.51;1775906;71;24508;-81
2021/01/26 08:25:06;;;;;;;7.48;2.28;;;4.90;99.90;;;6.98;100.00;101487.45;1770336;72;24483;-80
2021/01/26 08:28:09;;;;;;;7.55;2.13;;;4.90;99.90;;;6.96;100.00;101493.88;1771559;70;24492;-81
2021/01/26 08:33:35;;;;;;;7.88;2.22;;;4.90;99.90;;;6.86;100.00;101488.34;1746726;72;25260;-80
2021/01/26 08:36:33;;;;;;;7.30;2.28;;;4.80;99.90;;;6.79;100.00;101514.41;1721147;73;24551;-80
2021/01/26 08:38:58;;;;;;;11.28;2.56;;;4.80;99.90;;;6.93;100.00;101511.89;1719901;73;24607;-78
2021/01/26 08:41:34;;;;;;;8.74;2.07;;;4.80;99.90;;;7.05;100.00;101517.93;1722956;73;24730;-80
2021/01/26 08:43:51;;;;;;;7.24;2.00;;;4.90;99.90;;;7.00;100.00;101519.03;1715732;73;24910;-80
2021/01/26 08:46:08;;;;;;;9.23;2.51;;;4.90;99.90;;;7.02;100.00;101528.14;1716922;73;24950;-78
2021/01/26 08:48:39;;;;;;;8.41;2.53;;;4.90;99.90;;;7.01;100.00;101531.17;1715007;73;24496;-85
2021/01/26 08:51:13;;;;;;;13.90;3.09;;;5.00;99.90;;;7.10;100.00;101534.08;1715327;73;24966;-78
2021/01/26 08:53:38;;;;;;;10.92;2.77;;;5.00;99.90;;;7.08;100.00;101542.20;1724300;73;24534;-79
2021/01/26 08:55:58;;;;;;;9.88;2.64;;;5.10;99.90;;;7.21;100.00;101540.92;1723929;73;24550;-79
2021/01/26 08:58:40;;;;;;;10.66;2.82;;;5.20;99.90;;;7.27;100.00;101543.31;1720049;73;25602;-80
2021/01/26 09:01:00;;;;;;;10.05;2.60;;;5.30;99.90;;;7.25;100.00;101555.35;1720049;73;24532;-78
2021/01/26 09:03:39;;;;;;;13.50;2.55;;;5.50;99.90;;;7.37;100.00;101551.87;1704814;73;24575;-81
2021/01/26 09:06:02;;;;;;;8.74;2.58;;;5.50;99.90;;;7.36;100.00;101553.13;1719091;73;24432;-81
2021/01/26 09:08:47;;;;;;;7.71;2.67;;;5.60;99.90;;;7.59;100.00;101564.73;1717202;73;24980;-80
2021/01/26 09:11:07;;;;;;;15.27;3.04;;;5.70;99.90;;;7.50;100.00;101563.14;1720474;73;24435;-82
2021/01/26 09:13:28;;;;;;;9.00;2.89;;;5.70;99.90;;;7.45;100.00;101571.56;1721065;73;25272;-79
2021/01/26 09:15:52;;;;;;;9.83;3.01;;;5.80;99.90;;;7.42;100.00;101572.36;1719704;73;24542;-80
2021/01/26 09:18:11;;;;;;;10.08;2.62;;;5.80;99.90;;;7.50;100.00;101572.20;1721165;73;24542;-78
2021/01/26 09:20:34;;;;;;;8.77;2.69;;;5.90;99.90;;;7.50;100.00;101585.16;1719099;73;24424;-79
2021/01/26 09:22:53;;;;;;;10.77;2.58;;;5.90;99.90;;;7.58;100.00;101580.23;1720555;73;25085;-80
2021/01/26 09:25:17;;;;;;;7.68;2.16;;;6.00;99.90;;;7.62;100.00;101588.16;1715202;73;24920;-81
2021/01/26 09:27:38;;;;;;;6.14;1.94;;;6.00;99.90;;;7.67;100.00;101584.42;1716263;73;24484;-79
2021/01/26 09:30:21;;;;;;;7.23;2.09;;;6.00;99.90;;;7.56;100.00;101598.73;1718612;73;24504;-81
2021/01/26 09:32:39;;;;;;;6.32;1.94;;;6.00;99.90;;;7.63;100.00;101598.12;1725168;73;24991;-80
2021/01/26 09:34:58;;;;;;;10.56;2.62;;;6.10;99.90;;;7.68;100.00;101603.91;1731320;73;24492;-82
2021/01/26 09:37:18;;;;;;;7.88;2.23;;;6.00;99.90;;;7.62;100.00;101607.59;1720016;73;24507;-80
2021/01/26 09:39:35;;;;;;;9.36;2.57;;;6.10;99.90;;;7.64;100.00;101617.61;1721563;73;24532;-80
2021/01/26 09:41:53;;;;;;;7.25;2.03;;;6.10;99.90;;;7.78;100.00;101622.40;1723148;73;24472;-79
2021/01/26 09:44:14;;;;;;;6.85;1.92;;;6.10;99.90;;;7.73;100.00;101633.02;1727001;73;24564;-78
2021/01/26 09:46:34;;;;;;;6.61;2.04;;;6.10;99.90;;;7.63;100.00;101619.72;1730275;73;24518;-84
2021/01/26 09:48:55;;;;;;;8.20;2.26;;;6.10;99.90;;;7.69;100.00;101629.03;1726594;73;24516;-82
2021/01/26 09:51:17;;;;;;;7.36;1.93;;;6.20;99.90;;;7.56;100.00;101641.09;1724605;73;24580;-84
2021/01/26 09:53:34;;;;;;;8.25;1.97;;;6.20;99.90;;;7.70;100.00;101636.37;1723430;73;25479;-84
2021/01/26 09:55:55;;;;;;;8.07;2.25;;;6.30;99.90;;;7.81;100.00;101641.94;1724699;73;25652;-80
2021/01/26 09:58:28;;;;;;;4.96;1.85;;;6.30;99.90;;;7.86;100.00;101639.95;1734245;73;24519;-82
2021/01/26 10:00:46;;;;;;;6.28;2.10;;;6.30;99.90;;;7.79;100.00;101641.00;1722546;73;24971;-81
2021/01/26 10:03:04;;;;;;;8.34;2.31;;;6.40;99.90;;;7.76;100.00;101651.27;1725039;73;24464;-77
2021/01/26 10:05:23;;;;;;;5.70;1.99;;;6.40;99.90;;;7.77;100.00;101659.09;1722830;74;24514;-81
2021/01/26 10:07:41;;;;;;;6.83;2.32;;;6.40;99.90;;;7.78;100.00;101662.58;1731742;73;24969;-85
2021/01/26 10:10:15;;;;;;;4.81;1.97;;;6.40;99.90;;;7.78;100.00;101655.66;1733104;73;24873;-81
2021/01/26 10:12:40;;;;;;;7.35;2.13;;;6.50;99.90;;;7.90;100.00;101669.47;1726067;73;25130;-81
2021/01/26 10:15:19;;;;;;;5.05;1.90;;;6.60;99.90;;;8.03;100.00;101671.66;1725333;73;24512;-83
2021/01/26 10:17:42;;;;;;;4.70;1.71;;;6.70;99.90;;;8.06;100.00;101678.24;1722013;73;26129;-81
2021/01/26 10:20:03;;;;;;;3.88;1.62;;;6.90;99.90;;;8.19;100.00;101681.28;1722139;73;24546;-75
2021/01/26 10:22:22;;;;;;;4.57;1.60;;;7.20;99.90;;;8.28;100.00;101688.54;1727490;73;24532;-77
2021/01/26 10:24:40;;;;;;;6.51;1.85;;;7.40;99.90;;;8.14;100.00;101691.91;1725034;73;24657;-77
2021/01/26 10:27:22;;;;;;;4.13;1.65;;;7.60;99.90;;;8.32;100.00;101683.90;1727372;73;24480;-76
2021/01/26 10:29:45;;;;;;;4.50;1.97;;;7.90;99.90;;;8.53;100.00;101677.71;1728862;73;24520;-77
2021/01/26 10:32:03;;;;;;;6.02;2.13;;;8.10;99.90;;;8.57;100.00;101677.36;1726548;73;24531;-77
2021/01/26 10:34:38;;;;;;;4.13;1.91;;;8.10;99.90;;;8.26;100.00;101683.30;1716797;74;24878;-76
2021/01/26 10:37:00;;;;;;;6.58;2.20;;;8.00;99.90;;;8.15;100.00;101684.63;1714320;74;24476;-78
2021/01/26 10:39:33;;;;;;;5.44;2.11;;;7.90;99.90;;;8.20;100.00;101675.28;1709036;74;24501;-80
2021/01/26 10:42:03;;;;;;;5.14;2.32;;;7.80;99.90;;;8.30;100.00;101677.36;1714567;74;24485;-86